sensor_id;sensor_type;location;lat;lon;timestamp;pressure;altitude;pressure_sealevel;temperature;humidity
69351;BME280;57106;51.446;-2.606;2022-12-07T00:02:22;102484.68;;;4.99;71.22
69351;BME280;57106;51.446;-2.606;2022-12-07T00:04:49;102484.38;;;5.02;70.86
69351;BME280;57106;51.446;-2.606;2022-12-07T00:07:14;102482.98;;;4.98;70.85
69351;BME280;57106;51.446;-2.606;2022-12-07T00:09:38;102483.90;;;4.92;70.99
69351;BME280;57106;51.446;-2.606;2022-12-07T00:12:04;102481.36;;;4.90;71.17
69351;BME280;57106;51.446;-2.606;2022-12-07T00:14:29;102486.37;;;4.67;71.76
69351;BME280;57106;51.446;-2.606;2022-12-07T00:16:54;102490.46;;;4.72;71.29
69351;BME280;57106;51.446;-2.606;2022-12-07T00:19:19;102488.55;;;4.69;71.63
69351;BME280;57106;51.446;-2.606;2022-12-07T00:21:45;102486.98;;;4.45;72.34
69351;BME280;57106;51.446;-2.606;2022-12-07T00:24:11;102478.97;;;4.76;71.34
69351;BME280;57106;51.446;-2.606;2022-12-07T00:26:38;102477.26;;;4.42;72.23
69351;BME280;57106;51.446;-2.606;2022-12-07T00:29:05;102471.18;;;4.38;72.53
69351;BME280;57106;51.446;-2.606;2022-12-07T00:31:29;102467.12;;;4.38;72.38
69351;BME280;57106;51.446;-2.606;2022-12-07T00:33:53;102464.52;;;4.43;71.88
69351;BME280;57106;51.446;-2.606;2022-12-07T00:36:21;102460.71;;;4.35;72.22
69351;BME280;57106;51.446;-2.606;2022-12-07T00:38:44;102459.18;;;4.30;72.42
69351;BME280;57106;51.446;-2.606;2022-12-07T00:41:12;102455.32;;;4.31;72.36
69351;BME280;57106;51.446;-2.606;2022-12-07T00:43:36;102456.71;;;4.22;72.88
69351;BME280;57106;51.446;-2.606;2022-12-07T00:46:03;102454.94;;;4.20;72.43
69351;BME280;57106;51.446;-2.606;2022-12-07T00:48:28;102454.03;;;4.24;72.58
69351;BME280;57106;51.446;-2.606;2022-12-07T00:50:52;102452.98;;;4.15;72.32
69351;BME280;57106;51.446;-2.606;2022-12-07T00:53:17;102455.09;;;4.30;71.68
69351;BME280;57106;51.446;-2.606;2022-12-07T00:55:42;102453.92;;;4.28;71.69
69351;BME280;57106;51.446;-2.606;2022-12-07T00:58:08;102453.48;;;4.12;71.63
69351;BME280;57106;51.446;-2.606;2022-12-07T01:00:35;102452.20;;;4.05;72.02
69351;BME280;57106;51.446;-2.606;2022-12-07T01:02:59;102458.43;;;4.19;71.69
69351;BME280;57106;51.446;-2.606;2022-12-07T01:05:25;102460.18;;;3.87;72.69
69351;BME280;57106;51.446;-2.606;2022-12-07T01:07:56;102456.11;;;3.81;73.13
69351;BME280;57106;51.446;-2.606;2022-12-07T01:10:16;102459.02;;;3.80;73.31
69351;BME280;57106;51.446;-2.606;2022-12-07T01:12:41;102455.81;;;3.72;73.45
69351;BME280;57106;51.446;-2.606;2022-12-07T01:15:09;102451.26;;;3.90;72.94
69351;BME280;57106;51.446;-2.606;2022-12-07T01:17:34;102449.39;;;3.95;72.59
69351;BME280;57106;51.446;-2.606;2022-12-07T01:19:59;102448.24;;;3.88;72.78
69351;BME280;57106;51.446;-2.606;2022-12-07T01:22:24;102443.75;;;3.67;73.91
69351;BME280;57106;51.446;-2.606;2022-12-07T01:24:50;102442.90;;;3.80;73.11
69351;BME280;57106;51.446;-2.606;2022-12-07T01:27:16;102444.05;;;3.58;74.20
69351;BME280;57106;51.446;-2.606;2022-12-07T01:29:41;102444.21;;;3.77;73.29
69351;BME280;57106;51.446;-2.606;2022-12-07T01:32:06;102439.92;;;3.79;73.41
69351;BME280;57106;51.446;-2.606;2022-12-07T01:34:33;102438.57;;;3.85;73.11
69351;BME280;57106;51.446;-2.606;2022-12-07T01:36:58;102437.65;;;3.77;73.28
69351;BME280;57106;51.446;-2.606;2022-12-07T01:39:24;102437.17;;;3.87;72.76
69351;BME280;57106;51.446;-2.606;2022-12-07T01:41:49;102435.73;;;3.70;73.23
69351;BME280;57106;51.446;-2.606;2022-12-07T01:44:18;102437.33;;;3.60;73.81
69351;BME280;57106;51.446;-2.606;2022-12-07T01:46:41;102439.53;;;3.71;73.91
69351;BME280;57106;51.446;-2.606;2022-12-07T01:49:10;102439.26;;;3.75;73.72
69351;BME280;57106;51.446;-2.606;2022-12-07T01:51:31;102439.44;;;3.75;73.97
69351;BME280;57106;51.446;-2.606;2022-12-07T01:53:58;102437.77;;;3.43;74.64
69351;BME280;57106;51.446;-2.606;2022-12-07T01:56:25;102433.92;;;3.43;74.91
69351;BME280;57106;51.446;-2.606;2022-12-07T01:58:49;102434.31;;;3.36;75.40
69351;BME280;57106;51.446;-2.606;2022-12-07T02:01:14;102433.86;;;3.23;75.46
69351;BME280;57106;51.446;-2.606;2022-12-07T02:03:42;102436.79;;;3.30;75.29
69351;BME280;57106;51.446;-2.606;2022-12-07T02:06:06;102430.95;;;3.08;75.98
69351;BME280;57106;51.446;-2.606;2022-12-07T02:08:31;102433.95;;;3.19;75.64
69351;BME280;57106;51.446;-2.606;2022-12-07T02:10:57;102433.72;;;3.13;75.72
69351;BME280;57106;51.446;-2.606;2022-12-07T02:13:25;102432.84;;;3.11;75.71
69351;BME280;57106;51.446;-2.606;2022-12-07T02:16:06;102435.22;;;3.27;75.00
69351;BME280;57106;51.446;-2.606;2022-12-07T02:18:18;102434.29;;;3.27;75.20
69351;BME280;57106;51.446;-2.606;2022-12-07T02:20:45;102433.81;;;3.34;74.88
69351;BME280;57106;51.446;-2.606;2022-12-07T02:28:00;102437.97;;;3.46;74.27
69351;BME280;57106;51.446;-2.606;2022-12-07T02:30:22;102438.70;;;3.61;73.72
69351;BME280;57106;51.446;-2.606;2022-12-07T02:32:53;102435.50;;;3.57;73.49
69351;BME280;57106;51.446;-2.606;2022-12-07T02:35:20;102434.04;;;3.46;73.90
69351;BME280;57106;51.446;-2.606;2022-12-07T02:37:40;102432.23;;;3.44;73.32
69351;BME280;57106;51.446;-2.606;2022-12-07T02:40:09;102431.53;;;3.40;73.34
69351;BME280;57106;51.446;-2.606;2022-12-07T02:42:32;102429.51;;;3.06;74.92
69351;BME280;57106;51.446;-2.606;2022-12-07T02:44:54;102430.83;;;3.33;74.15
69351;BME280;57106;51.446;-2.606;2022-12-07T02:47:21;102430.01;;;3.32;73.94
69351;BME280;57106;51.446;-2.606;2022-12-07T02:49:46;102428.15;;;3.26;74.26
69351;BME280;57106;51.446;-2.606;2022-12-07T02:52:11;102427.92;;;3.23;74.25
69351;BME280;57106;51.446;-2.606;2022-12-07T02:57:10;102424.18;;;3.05;75.27
69351;BME280;57106;51.446;-2.606;2022-12-07T02:59:40;102425.30;;;3.27;74.42
69351;BME280;57106;51.446;-2.606;2022-12-07T03:02:02;102427.15;;;3.36;73.69
69351;BME280;57106;51.446;-2.606;2022-12-07T03:04:28;102431.93;;;3.34;73.87
69351;BME280;57106;51.446;-2.606;2022-12-07T03:06:49;102426.59;;;3.22;74.25
69351;BME280;57106;51.446;-2.606;2022-12-07T03:09:14;102425.14;;;3.25;74.01
69351;BME280;57106;51.446;-2.606;2022-12-07T03:11:41;102423.86;;;3.27;73.26
69351;BME280;57106;51.446;-2.606;2022-12-07T03:14:06;102421.54;;;3.23;73.91
69351;BME280;57106;51.446;-2.606;2022-12-07T03:16:28;102422.42;;;3.19;73.88
69351;BME280;57106;51.446;-2.606;2022-12-07T03:18:54;102422.17;;;3.21;73.83
69351;BME280;57106;51.446;-2.606;2022-12-07T03:21:20;102421.49;;;3.15;73.82
69351;BME280;57106;51.446;-2.606;2022-12-07T03:23:45;102415.01;;;2.93;74.59
69351;BME280;57106;51.446;-2.606;2022-12-07T03:26:11;102418.02;;;3.00;74.60
69351;BME280;57106;51.446;-2.606;2022-12-07T03:28:37;102416.19;;;3.11;74.04
69351;BME280;57106;51.446;-2.606;2022-12-07T03:31:03;102412.80;;;3.12;73.77
69351;BME280;57106;51.446;-2.606;2022-12-07T03:33:30;102415.44;;;3.08;74.04
69351;BME280;57106;51.446;-2.606;2022-12-07T03:35:54;102414.74;;;3.18;73.33
69351;BME280;57106;51.446;-2.606;2022-12-07T03:38:19;102413.14;;;3.03;74.03
69351;BME280;57106;51.446;-2.606;2022-12-07T03:40:46;102414.61;;;3.10;74.07
69351;BME280;57106;51.446;-2.606;2022-12-07T03:43:08;102413.70;;;3.03;73.77
69351;BME280;57106;51.446;-2.606;2022-12-07T03:45:38;102415.10;;;3.06;73.60
69351;BME280;57106;51.446;-2.606;2022-12-07T03:48:03;102416.13;;;3.10;72.97
69351;BME280;57106;51.446;-2.606;2022-12-07T03:50:29;102413.51;;;2.88;73.58
69351;BME280;57106;51.446;-2.606;2022-12-07T03:52:55;102412.97;;;2.91;73.64
69351;BME280;57106;51.446;-2.606;2022-12-07T03:55:18;102413.78;;;2.90;73.77
69351;BME280;57106;51.446;-2.606;2022-12-07T03:57:42;102417.47;;;2.96;73.64
69351;BME280;57106;51.446;-2.606;2022-12-07T04:00:07;102413.13;;;2.86;73.78
69351;BME280;57106;51.446;-2.606;2022-12-07T04:02:32;102413.59;;;2.98;73.48
69351;BME280;57106;51.446;-2.606;2022-12-07T04:04:57;102409.25;;;3.00;72.98
69351;BME280;57106;51.446;-2.606;2022-12-07T04:07:23;102414.27;;;2.91;73.68
69351;BME280;57106;51.446;-2.606;2022-12-07T04:17:05;102406.01;;;2.87;73.03
69351;BME280;57106;51.446;-2.606;2022-12-07T04:19:32;102408.64;;;3.04;72.81
69351;BME280;57106;51.446;-2.606;2022-12-07T04:21:57;102403.28;;;2.85;72.88
69351;BME280;57106;51.446;-2.606;2022-12-07T04:24:22;102404.69;;;2.74;73.07
69351;BME280;57106;51.446;-2.606;2022-12-07T04:26:47;102407.81;;;2.74;72.92
69351;BME280;57106;51.446;-2.606;2022-12-07T04:29:13;102402.72;;;2.59;73.15
69351;BME280;57106;51.446;-2.606;2022-12-07T04:31:39;102403.00;;;2.61;73.29
69351;BME280;57106;51.446;-2.606;2022-12-07T04:34:05;102403.30;;;2.61;73.21
69351;BME280;57106;51.446;-2.606;2022-12-07T04:36:31;102396.89;;;2.56;73.39
69351;BME280;57106;51.446;-2.606;2022-12-07T04:38:56;102390.10;;;2.12;74.98
69351;BME280;57106;51.446;-2.606;2022-12-07T04:41:22;102391.36;;;2.40;74.53
69351;BME280;57106;51.446;-2.606;2022-12-07T04:43:46;102388.30;;;2.28;74.93
69351;BME280;57106;51.446;-2.606;2022-12-07T04:46:12;102387.72;;;2.33;74.98
69351;BME280;57106;51.446;-2.606;2022-12-07T04:48:38;102390.95;;;2.38;75.85
69351;BME280;57106;51.446;-2.606;2022-12-07T04:51:04;102392.39;;;2.36;75.26
69351;BME280;57106;51.446;-2.606;2022-12-07T04:53:29;102392.64;;;2.45;75.44
69351;BME280;57106;51.446;-2.606;2022-12-07T04:55:54;102386.09;;;2.42;75.96
69351;BME280;57106;51.446;-2.606;2022-12-07T04:58:19;102382.43;;;2.59;75.99
69351;BME280;57106;51.446;-2.606;2022-12-07T05:00:45;102386.64;;;2.63;76.11
69351;BME280;57106;51.446;-2.606;2022-12-07T05:03:11;102387.52;;;2.63;76.77
69351;BME280;57106;51.446;-2.606;2022-12-07T05:05:40;102389.24;;;2.66;77.06
69351;BME280;57106;51.446;-2.606;2022-12-07T05:08:02;102391.00;;;2.85;76.53
69351;BME280;57106;51.446;-2.606;2022-12-07T05:10:29;102390.61;;;2.78;76.51
69351;BME280;57106;51.446;-2.606;2022-12-07T05:12:54;102393.85;;;2.89;76.50
69351;BME280;57106;51.446;-2.606;2022-12-07T05:15:20;102391.93;;;2.87;76.33
69351;BME280;57106;51.446;-2.606;2022-12-07T05:17:46;102390.82;;;2.95;76.34
69351;BME280;57106;51.446;-2.606;2022-12-07T05:20:12;102393.77;;;3.20;75.51
69351;BME280;57106;51.446;-2.606;2022-12-07T05:22:37;102388.64;;;3.20;73.49
69351;BME280;57106;51.446;-2.606;2022-12-07T05:25:02;102388.51;;;2.98;73.03
69351;BME280;57106;51.446;-2.606;2022-12-07T05:27:28;102389.19;;;2.86;73.07
69351;BME280;57106;51.446;-2.606;2022-12-07T05:29:53;102391.76;;;2.92;72.44
69351;BME280;57106;51.446;-2.606;2022-12-07T05:32:19;102387.07;;;2.73;72.87
69351;BME280;57106;51.446;-2.606;2022-12-07T05:34:45;102388.51;;;2.54;73.61
69351;BME280;57106;51.446;-2.606;2022-12-07T05:37:10;102391.33;;;2.51;73.83
69351;BME280;57106;51.446;-2.606;2022-12-07T05:39:36;102384.42;;;2.74;72.70
69351;BME280;57106;51.446;-2.606;2022-12-07T05:42:02;102378.90;;;2.64;73.14
69351;BME280;57106;51.446;-2.606;2022-12-07T05:44:28;102379.55;;;2.47;74.14
69351;BME280;57106;51.446;-2.606;2022-12-07T05:46:53;102373.55;;;2.49;74.61
69351;BME280;57106;51.446;-2.606;2022-12-07T05:49:19;102374.23;;;2.64;74.33
69351;BME280;57106;51.446;-2.606;2022-12-07T05:51:44;102373.84;;;2.36;74.67
69351;BME280;57106;51.446;-2.606;2022-12-07T05:54:10;102372.12;;;2.30;75.06
69351;BME280;57106;51.446;-2.606;2022-12-07T05:56:35;102367.85;;;2.30;75.50
69351;BME280;57106;51.446;-2.606;2022-12-07T05:59:01;102367.60;;;2.42;75.40
69351;BME280;57106;51.446;-2.606;2022-12-07T06:01:27;102366.31;;;2.66;74.70
69351;BME280;57106;51.446;-2.606;2022-12-07T06:03:51;102366.00;;;2.60;76.22
69351;BME280;57106;51.446;-2.606;2022-12-07T06:06:17;102368.84;;;2.71;76.31
69351;BME280;57106;51.446;-2.606;2022-12-07T06:08:43;102372.01;;;2.93;74.79
69351;BME280;57106;51.446;-2.606;2022-12-07T06:11:08;102368.40;;;2.95;73.85
69351;BME280;57106;51.446;-2.606;2022-12-07T06:13:35;102370.35;;;2.90;73.87
69351;BME280;57106;51.446;-2.606;2022-12-07T06:15:59;102371.37;;;2.79;73.75
69351;BME280;57106;51.446;-2.606;2022-12-07T06:18:25;102371.34;;;2.82;73.38
69351;BME280;57106;51.446;-2.606;2022-12-07T06:20:51;102371.81;;;2.72;74.04
69351;BME280;57106;51.446;-2.606;2022-12-07T06:23:17;102373.25;;;2.65;73.29
69351;BME280;57106;51.446;-2.606;2022-12-07T06:25:45;102374.42;;;2.60;73.57
69351;BME280;57106;51.446;-2.606;2022-12-07T06:28:08;102379.73;;;2.39;74.10
69351;BME280;57106;51.446;-2.606;2022-12-07T06:30:35;102378.71;;;2.36;74.39
69351;BME280;57106;51.446;-2.606;2022-12-07T06:32:59;102375.30;;;2.26;74.96
69351;BME280;57106;51.446;-2.606;2022-12-07T06:35:25;102374.82;;;2.32;74.87
69351;BME280;57106;51.446;-2.606;2022-12-07T06:37:50;102376.32;;;2.40;74.26
69351;BME280;57106;51.446;-2.606;2022-12-07T06:40:16;102377.81;;;2.37;73.87
69351;BME280;57106;51.446;-2.606;2022-12-07T06:42:41;102377.44;;;2.26;73.58
69351;BME280;57106;51.446;-2.606;2022-12-07T06:45:08;102379.40;;;2.28;73.67
69351;BME280;57106;51.446;-2.606;2022-12-07T06:47:33;102380.22;;;2.22;73.84
69351;BME280;57106;51.446;-2.606;2022-12-07T06:49:57;102376.73;;;2.12;73.75
69351;BME280;57106;51.446;-2.606;2022-12-07T06:52:23;102379.12;;;2.27;73.36
69351;BME280;57106;51.446;-2.606;2022-12-07T06:54:50;102377.36;;;2.13;73.16
69351;BME280;57106;51.446;-2.606;2022-12-07T06:57:14;102378.81;;;1.95;74.54
69351;BME280;57106;51.446;-2.606;2022-12-07T06:59:40;102380.90;;;2.08;74.26
69351;BME280;57106;51.446;-2.606;2022-12-07T07:02:07;102381.95;;;1.99;74.35
69351;BME280;57106;51.446;-2.606;2022-12-07T07:04:32;102383.76;;;1.84;75.26
69351;BME280;57106;51.446;-2.606;2022-12-07T07:06:57;102381.75;;;2.01;74.94
69351;BME280;57106;51.446;-2.606;2022-12-07T07:09:23;102381.80;;;2.01;74.77
69351;BME280;57106;51.446;-2.606;2022-12-07T07:11:48;102383.22;;;2.04;74.24
69351;BME280;57106;51.446;-2.606;2022-12-07T07:14:14;102385.57;;;1.99;74.34
69351;BME280;57106;51.446;-2.606;2022-12-07T07:16:39;102390.53;;;1.90;74.32
69351;BME280;57106;51.446;-2.606;2022-12-07T07:19:04;102386.68;;;2.08;73.84
69351;BME280;57106;51.446;-2.606;2022-12-07T07:21:30;102388.33;;;1.95;73.94
69351;BME280;57106;51.446;-2.606;2022-12-07T07:23:55;102395.82;;;1.96;73.86
69351;BME280;57106;51.446;-2.606;2022-12-07T07:26:21;102388.02;;;2.08;73.98
69351;BME280;57106;51.446;-2.606;2022-12-07T07:28:46;102389.60;;;1.86;74.99
69351;BME280;57106;51.446;-2.606;2022-12-07T07:31:11;102390.71;;;1.60;76.11
69351;BME280;57106;51.446;-2.606;2022-12-07T07:33:37;102388.93;;;2.05;75.09
69351;BME280;57106;51.446;-2.606;2022-12-07T07:36:02;102388.75;;;2.11;74.76
69351;BME280;57106;51.446;-2.606;2022-12-07T07:38:27;102385.75;;;2.04;74.77
69351;BME280;57106;51.446;-2.606;2022-12-07T07:40:53;102389.58;;;2.00;74.48
69351;BME280;57106;51.446;-2.606;2022-12-07T07:45:45;102389.34;;;1.78;74.68
69351;BME280;57106;51.446;-2.606;2022-12-07T07:48:10;102390.21;;;1.94;74.03
69351;BME280;57106;51.446;-2.606;2022-12-07T07:50:36;102389.88;;;1.78;74.29
69351;BME280;57106;51.446;-2.606;2022-12-07T07:53:02;102389.21;;;1.98;73.64
69351;BME280;57106;51.446;-2.606;2022-12-07T08:00:19;102388.31;;;1.89;74.63
69351;BME280;57106;51.446;-2.606;2022-12-07T08:02:44;102392.46;;;1.85;74.52
69351;BME280;57106;51.446;-2.606;2022-12-07T08:05:11;102392.43;;;1.89;74.50
69351;BME280;57106;51.446;-2.606;2022-12-07T08:48:54;102407.33;;;2.07;72.57
69351;BME280;57106;51.446;-2.606;2022-12-07T08:51:15;102406.52;;;2.16;72.73
69351;BME280;57106;51.446;-2.606;2022-12-07T08:56:07;102400.08;;;2.27;72.48
69351;BME280;57106;51.446;-2.606;2022-12-07T09:00:56;102401.07;;;2.51;71.94
69351;BME280;57106;51.446;-2.606;2022-12-07T09:03:22;102400.60;;;2.46;71.74
69351;BME280;57106;51.446;-2.606;2022-12-07T09:05:48;102401.18;;;2.59;71.50
69351;BME280;57106;51.446;-2.606;2022-12-07T09:08:14;102405.36;;;2.58;71.98
69351;BME280;57106;51.446;-2.606;2022-12-07T09:10:40;102407.66;;;2.35;72.11
69351;BME280;57106;51.446;-2.606;2022-12-07T09:13:05;102406.21;;;2.34;72.40
69351;BME280;57106;51.446;-2.606;2022-12-07T09:15:31;102403.92;;;2.30;72.83
69351;BME280;57106;51.446;-2.606;2022-12-07T09:17:56;102405.43;;;2.16;73.27
69351;BME280;57106;51.446;-2.606;2022-12-07T09:20:22;102402.31;;;2.27;72.63
69351;BME280;57106;51.446;-2.606;2022-12-07T09:22:46;102400.07;;;2.15;73.33
69351;BME280;57106;51.446;-2.606;2022-12-07T09:25:13;102395.04;;;2.22;73.11
69351;BME280;57106;51.446;-2.606;2022-12-07T09:27:38;102402.84;;;2.07;73.85
69351;BME280;57106;51.446;-2.606;2022-12-07T09:30:04;102396.55;;;2.18;73.91
69351;BME280;57106;51.446;-2.606;2022-12-07T09:32:28;102394.70;;;2.42;73.21
69351;BME280;57106;51.446;-2.606;2022-12-07T09:34:54;102397.28;;;2.38;73.22
69351;BME280;57106;51.446;-2.606;2022-12-07T09:37:19;102401.78;;;2.27;73.34
69351;BME280;57106;51.446;-2.606;2022-12-07T09:39:44;102405.02;;;2.40;73.33
69351;BME280;57106;51.446;-2.606;2022-12-07T09:42:18;102408.76;;;2.41;73.24
69351;BME280;57106;51.446;-2.606;2022-12-07T09:44:35;102407.21;;;2.47;73.63
69351;BME280;57106;51.446;-2.606;2022-12-07T09:47:01;102402.47;;;2.53;73.43
69351;BME280;57106;51.446;-2.606;2022-12-07T09:49:28;102400.71;;;2.47;73.71
69351;BME280;57106;51.446;-2.606;2022-12-07T09:52:01;102398.84;;;2.87;72.98
69351;BME280;57106;51.446;-2.606;2022-12-07T09:54:18;102397.01;;;2.86;72.98
69351;BME280;57106;51.446;-2.606;2022-12-07T09:56:43;102396.47;;;3.00;72.83
69351;BME280;57106;51.446;-2.606;2022-12-07T09:59:13;102398.96;;;2.96;72.69
69351;BME280;57106;51.446;-2.606;2022-12-07T10:01:34;102394.04;;;2.77;73.56
69351;BME280;57106;51.446;-2.606;2022-12-07T10:04:09;102397.37;;;2.86;73.44
69351;BME280;57106;51.446;-2.606;2022-12-07T10:06:26;102397.49;;;2.92;73.24
69351;BME280;57106;51.446;-2.606;2022-12-07T10:08:51;102395.52;;;3.03;73.27
69351;BME280;57106;51.446;-2.606;2022-12-07T10:13:43;102391.00;;;2.85;74.05
69351;BME280;57106;51.446;-2.606;2022-12-07T10:18:34;102385.70;;;2.93;74.24
69351;BME280;57106;51.446;-2.606;2022-12-07T10:21:10;102381.95;;;3.11;73.89
69351;BME280;57106;51.446;-2.606;2022-12-07T10:23:23;102387.47;;;3.29;73.41
69351;BME280;57106;51.446;-2.606;2022-12-07T10:25:49;102386.50;;;3.41;73.43
69351;BME280;57106;51.446;-2.606;2022-12-07T10:28:16;102380.34;;;3.71;72.24
69351;BME280;57106;51.446;-2.606;2022-12-07T10:30:49;102374.97;;;3.41;73.30
69351;BME280;57106;51.446;-2.606;2022-12-07T10:33:15;102371.02;;;3.69;72.62
69351;BME280;57106;51.446;-2.606;2022-12-07T10:35:30;102370.50;;;3.86;72.23
69351;BME280;57106;51.446;-2.606;2022-12-07T10:37:57;102370.02;;;3.94;72.03
69351;BME280;57106;51.446;-2.606;2022-12-07T10:40:28;102367.21;;;3.95;72.15
69351;BME280;57106;51.446;-2.606;2022-12-07T10:45:15;102355.23;;;4.35;71.31
69351;BME280;57106;51.446;-2.606;2022-12-07T10:47:43;102354.18;;;4.21;71.44
69351;BME280;57106;51.446;-2.606;2022-12-07T10:50:18;102351.98;;;4.76;70.38
69351;BME280;57106;51.446;-2.606;2022-12-07T10:52:45;102346.13;;;4.70;69.81
69351;BME280;57106;51.446;-2.606;2022-12-07T10:55:06;102339.83;;;5.14;69.10
69351;BME280;57106;51.446;-2.606;2022-12-07T10:57:29;102340.68;;;5.06;69.29
69351;BME280;57106;51.446;-2.606;2022-12-07T11:00:00;102336.47;;;5.32;67.92
69351;BME280;57106;51.446;-2.606;2022-12-07T11:02:24;102335.25;;;4.92;68.60
69351;BME280;57106;51.446;-2.606;2022-12-07T11:04:43;102329.47;;;5.33;68.50
69351;BME280;57106;51.446;-2.606;2022-12-07T11:07:10;102325.69;;;5.30;67.36
69351;BME280;57106;51.446;-2.606;2022-12-07T11:09:42;102320.96;;;4.77;67.66
69351;BME280;57106;51.446;-2.606;2022-12-07T11:11:59;102321.86;;;4.84;67.90
69351;BME280;57106;51.446;-2.606;2022-12-07T11:14:24;102321.21;;;4.96;67.70
69351;BME280;57106;51.446;-2.606;2022-12-07T11:16:55;102324.91;;;4.93;67.59
69351;BME280;57106;51.446;-2.606;2022-12-07T11:19:22;102320.43;;;5.16;67.28
69351;BME280;57106;51.446;-2.606;2022-12-07T11:21:43;102312.90;;;5.23;66.89
69351;BME280;57106;51.446;-2.606;2022-12-07T11:24:06;102305.33;;;5.38;66.36
69351;BME280;57106;51.446;-2.606;2022-12-07T11:26:40;102301.70;;;5.67;65.86
69351;BME280;57106;51.446;-2.606;2022-12-07T11:29:05;102299.91;;;5.72;65.59
69351;BME280;57106;51.446;-2.606;2022-12-07T11:31:24;102297.60;;;5.98;64.66
69351;BME280;57106;51.446;-2.606;2022-12-07T11:33:46;102295.62;;;5.66;65.07
69351;BME280;57106;51.446;-2.606;2022-12-07T11:36:20;102294.49;;;5.66;65.41
69351;BME280;57106;51.446;-2.606;2022-12-07T11:41:02;102293.05;;;6.12;63.65
69351;BME280;57106;51.446;-2.606;2022-12-07T11:45:57;102283.42;;;5.41;65.14
69351;BME280;57106;51.446;-2.606;2022-12-07T11:55:42;102265.11;;;5.64;63.96
69351;BME280;57106;51.446;-2.606;2022-12-07T11:58:04;102265.79;;;5.70;63.26
69351;BME280;57106;51.446;-2.606;2022-12-07T12:00:25;102263.28;;;5.90;63.02
69351;BME280;57106;51.446;-2.606;2022-12-07T12:02:57;102258.31;;;5.93;63.30
69351;BME280;57106;51.446;-2.606;2022-12-07T12:05:19;102261.20;;;6.09;63.10
69351;BME280;57106;51.446;-2.606;2022-12-07T12:07:46;102254.93;;;5.71;63.93
69351;BME280;57106;51.446;-2.606;2022-12-07T12:10:17;102253.71;;;5.71;64.19
69351;BME280;57106;51.446;-2.606;2022-12-07T12:12:47;102248.58;;;5.99;63.94
69351;BME280;57106;51.446;-2.606;2022-12-07T12:15:13;102249.71;;;6.16;63.70
69351;BME280;57106;51.446;-2.606;2022-12-07T12:17:40;102247.58;;;6.05;64.31
69351;BME280;57106;51.446;-2.606;2022-12-07T12:20:01;102240.22;;;6.15;63.45
69351;BME280;57106;51.446;-2.606;2022-12-07T12:22:19;102236.28;;;6.17;64.68
69351;BME280;57106;51.446;-2.606;2022-12-07T12:24:43;102237.10;;;6.07;63.65
69351;BME280;57106;51.446;-2.606;2022-12-07T12:27:17;102241.78;;;6.38;63.89
69351;BME280;57106;51.446;-2.606;2022-12-07T12:29:36;102234.36;;;5.87;64.32
69351;BME280;57106;51.446;-2.606;2022-12-07T12:32:10;102236.22;;;6.01;64.55
69351;BME280;57106;51.446;-2.606;2022-12-07T12:34:34;102231.80;;;6.12;64.61
69351;BME280;57106;51.446;-2.606;2022-12-07T12:36:51;102225.15;;;5.63;65.37
69351;BME280;57106;51.446;-2.606;2022-12-07T12:39:17;102223.34;;;5.66;65.02
69351;BME280;57106;51.446;-2.606;2022-12-07T12:41:56;102216.53;;;5.81;64.53
69351;BME280;57106;51.446;-2.606;2022-12-07T12:46:46;102211.56;;;6.18;63.58
69351;BME280;57106;51.446;-2.606;2022-12-07T12:51:36;102207.86;;;6.50;63.08
69351;BME280;57106;51.446;-2.606;2022-12-07T12:53:50;102203.15;;;6.48;63.18
69351;BME280;57106;51.446;-2.606;2022-12-07T12:56:29;102201.00;;;6.48;63.72
69351;BME280;57106;51.446;-2.606;2022-12-07T12:58:43;102194.46;;;6.44;64.05
69351;BME280;57106;51.446;-2.606;2022-12-07T13:03:32;102193.87;;;6.56;63.61
69351;BME280;57106;51.446;-2.606;2022-12-07T13:08:25;102189.24;;;6.56;63.78
69351;BME280;57106;51.446;-2.606;2022-12-07T13:10:49;102183.57;;;6.65;63.51
69351;BME280;57106;51.446;-2.606;2022-12-07T13:13:30;102185.15;;;6.79;62.90
69351;BME280;57106;51.446;-2.606;2022-12-07T13:15:41;102183.00;;;6.63;63.71
69351;BME280;57106;51.446;-2.606;2022-12-07T13:20:43;102173.42;;;6.47;63.90
69351;BME280;57106;51.446;-2.606;2022-12-07T13:22:58;102163.91;;;6.51;63.97
69351;BME280;57106;51.446;-2.606;2022-12-07T13:25:30;102160.92;;;6.71;64.27
69351;BME280;57106;51.446;-2.606;2022-12-07T13:27:55;102158.25;;;6.84;63.56
69351;BME280;57106;51.446;-2.606;2022-12-07T13:30:17;102156.76;;;6.63;63.80
69351;BME280;57106;51.446;-2.606;2022-12-07T13:32:38;102156.21;;;6.78;63.74
69351;BME280;57106;51.446;-2.606;2022-12-07T13:37:32;102146.74;;;6.92;63.51
69351;BME280;57106;51.446;-2.606;2022-12-07T13:39:57;102141.63;;;6.64;62.94
69351;BME280;57106;51.446;-2.606;2022-12-07T13:47:16;102132.89;;;6.73;63.48
69351;BME280;57106;51.446;-2.606;2022-12-07T13:52:14;102123.21;;;6.66;61.49
69351;BME280;57106;51.446;-2.606;2022-12-07T13:54:30;102124.07;;;6.74;61.32
69351;BME280;57106;51.446;-2.606;2022-12-07T13:56:55;102122.63;;;6.51;62.34
69351;BME280;57106;51.446;-2.606;2022-12-07T13:59:22;102119.32;;;6.80;62.22
69351;BME280;57106;51.446;-2.606;2022-12-07T14:01:48;102116.01;;;6.24;63.08
69351;BME280;57106;51.446;-2.606;2022-12-07T14:04:24;102113.49;;;6.36;63.04
69351;BME280;57106;51.446;-2.606;2022-12-07T14:06:46;102114.49;;;6.60;63.02
69351;BME280;57106;51.446;-2.606;2022-12-07T14:09:08;102111.72;;;6.56;62.61
69351;BME280;57106;51.446;-2.606;2022-12-07T14:11:30;102111.52;;;6.23;63.45
69351;BME280;57106;51.446;-2.606;2022-12-07T14:13:58;102106.66;;;6.26;63.37
69351;BME280;57106;51.446;-2.606;2022-12-07T14:16:25;102100.60;;;6.31;62.52
69351;BME280;57106;51.446;-2.606;2022-12-07T14:18:46;102096.49;;;5.99;64.01
69351;BME280;57106;51.446;-2.606;2022-12-07T14:21:16;102087.10;;;6.31;63.68
69351;BME280;57106;51.446;-2.606;2022-12-07T14:23:38;102082.83;;;6.42;63.09
69351;BME280;57106;51.446;-2.606;2022-12-07T14:26:10;102082.61;;;6.50;62.20
69351;BME280;57106;51.446;-2.606;2022-12-07T14:28:30;102082.39;;;6.52;62.15
69351;BME280;57106;51.446;-2.606;2022-12-07T14:30:54;102078.34;;;5.98;62.35